createdAt,value
2019-01-20T00:00:55.738Z,16.43
2019-01-20T00:03:25.101Z,12.00
2019-01-20T00:05:54.491Z,15.27
2019-01-20T00:08:23.854Z,12.00
2019-01-20T00:10:53.563Z,12.28
2019-01-20T00:13:23.200Z,14.13
2019-01-20T00:15:52.841Z,13.63
2019-01-20T00:18:22.202Z,15.00
2019-01-20T00:20:51.563Z,13.17
2019-01-20T00:23:20.985Z,14.70
2019-01-20T00:25:50.359Z,14.46
2019-01-20T00:28:19.718Z,14.33
2019-01-20T00:30:49.393Z,16.93
2019-01-20T00:33:19.062Z,15.33
2019-01-20T00:35:48.756Z,18.60
2019-01-20T00:38:18.653Z,15.77
2019-01-20T00:40:48.034Z,17.30
2019-01-20T00:43:17.495Z,13.60
2019-01-20T00:45:47.195Z,13.33
2019-01-20T00:48:16.625Z,15.53
2019-01-20T00:50:45.985Z,14.03
2019-01-20T00:53:15.380Z,14.50
2019-01-20T00:55:45.021Z,13.77
2019-01-20T00:58:14.410Z,15.20
2019-01-20T01:00:44.120Z,15.33
2019-01-20T01:03:13.549Z,14.53
2019-01-20T01:05:42.929Z,14.53
2019-01-20T01:08:13.046Z,17.13
2019-01-20T01:10:42.427Z,15.57
2019-01-20T01:13:11.808Z,15.67
2019-01-20T01:15:41.256Z,15.27
2019-01-20T01:18:10.994Z,13.90
2019-01-20T01:20:40.508Z,17.47
2019-01-20T01:23:09.964Z,17.87
2019-01-20T01:25:39.395Z,16.43
2019-01-20T01:28:08.793Z,14.60
2019-01-20T01:30:38.497Z,15.60
2019-01-20T01:33:08.165Z,16.77
2019-01-20T01:35:37.542Z,16.70
2019-01-20T01:38:07.218Z,17.10
2019-01-20T01:40:36.608Z,15.67
2019-01-20T01:43:06.629Z,15.15
2019-01-20T01:45:36.412Z,17.25
2019-01-20T01:48:06.869Z,15.53
2019-01-20T01:50:36.572Z,18.10
2019-01-20T01:53:06.045Z,16.77
2019-01-20T01:55:35.426Z,20.23
2019-01-20T01:58:04.886Z,17.97
2019-01-20T02:00:34.608Z,18.13
2019-01-20T02:03:04.032Z,16.10
2019-01-20T02:05:33.382Z,16.97
2019-01-20T02:08:02.770Z,16.67
2019-01-20T02:10:32.165Z,18.42
2019-01-20T02:13:01.543Z,15.17
2019-01-20T02:15:31.063Z,19.47
2019-01-20T02:18:00.482Z,17.90
2019-01-20T02:20:32.819Z,16.57
2019-01-20T02:23:02.197Z,13.97
2019-01-20T02:25:31.590Z,19.30
2019-01-20T02:28:01.035Z,15.53
2019-01-20T02:30:30.880Z,15.10
2019-01-20T02:33:00.610Z,16.77
2019-01-20T02:35:29.979Z,16.63
2019-01-20T02:37:59.452Z,14.20
2019-01-20T02:40:28.927Z,16.00
2019-01-20T02:42:58.350Z,19.60
2019-01-20T02:45:27.706Z,16.37
2019-01-20T02:48:00.064Z,17.40
2019-01-20T02:50:29.493Z,15.55
2019-01-20T02:52:58.839Z,15.63
2019-01-20T02:55:28.290Z,17.57
2019-01-20T02:57:57.831Z,16.10
2019-01-20T03:00:27.301Z,16.43
2019-01-20T03:02:56.744Z,14.60
2019-01-20T03:05:26.219Z,17.23
2019-01-20T03:07:55.589Z,16.53
2019-01-20T03:10:24.976Z,16.87
2019-01-20T03:12:54.438Z,15.90
2019-01-20T03:15:23.889Z,17.67
2019-01-20T03:17:53.231Z,17.53
2019-01-20T03:20:23.656Z,16.67
2019-01-20T03:22:53.015Z,15.93
2019-01-20T03:25:22.743Z,16.03
2019-01-20T03:27:52.150Z,17.80
2019-01-20T03:30:23.281Z,16.00
2019-01-20T03:32:53.345Z,16.73
2019-01-20T03:35:25.081Z,16.93
2019-01-20T03:37:54.596Z,17.27
2019-01-20T03:40:24.087Z,18.93
2019-01-20T03:42:53.486Z,19.87
2019-01-20T03:45:22.860Z,17.50
2019-01-20T03:47:52.568Z,17.37
2019-01-20T03:50:23.377Z,22.07
2019-01-20T03:52:52.762Z,19.13
2019-01-20T03:55:22.147Z,16.87
2019-01-20T03:57:51.554Z,17.17
2019-01-20T04:00:23.634Z,21.40
2019-01-20T04:02:58.490Z,18.90
2019-01-20T04:05:27.934Z,17.67
2019-01-20T04:07:57.499Z,16.60
2019-01-20T04:10:26.964Z,18.73
2019-01-20T04:12:56.423Z,15.67
2019-01-20T04:15:25.917Z,18.23
2019-01-20T04:17:55.389Z,20.30
2019-01-20T04:20:24.889Z,15.53
2019-01-20T04:22:54.291Z,16.87
2019-01-20T04:25:23.797Z,19.30
2019-01-20T04:27:53.222Z,15.77
2019-01-20T04:30:22.588Z,21.40
2019-01-20T04:32:52.052Z,19.30
2019-01-20T04:35:21.437Z,18.33
2019-01-20T04:37:50.829Z,17.73
2019-01-20T04:40:22.307Z,18.17
2019-01-20T04:42:51.724Z,18.63
2019-01-20T04:45:21.529Z,20.60
2019-01-20T04:47:50.934Z,17.67
2019-01-20T04:50:23.134Z,16.90
2019-01-20T04:52:52.792Z,16.97
2019-01-20T04:55:22.311Z,19.00
2019-01-20T04:57:53.440Z,18.57
2019-01-20T05:00:25.713Z,17.50
2019-01-20T05:02:55.806Z,18.67
2019-01-20T05:05:25.601Z,15.87
2019-01-20T05:07:55.074Z,16.23
2019-01-20T05:10:24.546Z,16.83
2019-01-20T05:12:53.927Z,17.07
2019-01-20T05:15:24.421Z,18.10
2019-01-20T05:17:53.809Z,16.80
2019-01-20T05:20:23.350Z,16.83
2019-01-20T05:22:52.786Z,19.10
2019-01-20T05:25:22.114Z,21.65
2019-01-20T05:27:51.809Z,22.67
2019-01-20T05:30:25.651Z,18.87
2019-01-20T05:32:55.035Z,18.03
2019-01-20T05:35:24.750Z,16.60
2019-01-20T05:37:54.118Z,19.53
2019-01-20T05:40:23.582Z,19.20
2019-01-20T05:42:52.963Z,17.37
2019-01-20T05:45:24.753Z,16.27
2019-01-20T05:47:54.146Z,21.37
2019-01-20T05:50:23.620Z,21.17
2019-01-20T05:52:52.992Z,16.90
2019-01-20T05:55:22.398Z,16.37
2019-01-20T05:57:51.773Z,17.62
2019-01-20T06:00:27.770Z,19.70
2019-01-20T06:02:57.168Z,18.67
2019-01-20T06:05:26.582Z,17.87
2019-01-20T06:07:56.038Z,18.42
2019-01-20T06:10:25.433Z,17.53
2019-01-20T06:12:54.823Z,23.13
2019-01-20T06:15:24.647Z,16.77
2019-01-20T06:17:54.344Z,16.05
2019-01-20T06:20:23.799Z,16.27
2019-01-20T06:22:53.599Z,18.27
2019-01-20T06:25:23.069Z,24.80
2019-01-20T06:28:11.754Z,18.43
2019-01-20T06:30:41.134Z,18.90
2019-01-20T06:33:10.539Z,21.40
2019-01-20T06:35:40.244Z,17.40
2019-01-20T06:38:09.750Z,21.23
2019-01-20T06:40:39.208Z,18.57
2019-01-20T06:43:08.969Z,19.00
2019-01-20T06:45:38.459Z,21.80
2019-01-20T06:48:08.090Z,16.00
2019-01-20T06:50:37.495Z,18.27
2019-01-20T06:53:06.915Z,20.03
2019-01-20T06:55:36.567Z,17.73
2019-01-20T06:58:06.138Z,18.75
2019-01-20T07:00:36.544Z,17.57
2019-01-20T07:03:06.086Z,17.83
2019-01-20T07:05:35.713Z,17.62
2019-01-20T07:08:05.292Z,17.87
2019-01-20T07:10:35.233Z,22.73
2019-01-20T07:13:09.158Z,16.17
2019-01-20T07:15:36.029Z,19.40
2019-01-20T07:18:05.539Z,16.10
2019-01-20T07:20:34.984Z,20.52
2019-01-20T07:23:04.381Z,17.67
2019-01-20T07:25:33.767Z,18.53
2019-01-20T07:28:03.280Z,20.30
2019-01-20T07:30:32.691Z,21.57
2019-01-20T07:33:04.238Z,20.45
2019-01-20T07:35:33.727Z,18.57
2019-01-20T07:38:03.461Z,22.80
2019-01-20T07:40:33.067Z,20.23
2019-01-20T07:43:02.484Z,18.83
2019-01-20T07:45:31.933Z,20.83
2019-01-20T07:48:01.402Z,21.63
2019-01-20T07:50:30.894Z,21.47
2019-01-20T07:53:00.350Z,22.42
2019-01-20T07:55:29.882Z,20.43
2019-01-20T07:58:01.146Z,21.20
2019-01-20T08:00:31.169Z,21.27
2019-01-20T08:03:00.642Z,23.60
2019-01-20T08:05:30.386Z,22.80
2019-01-20T08:08:01.545Z,26.27
2019-01-20T08:10:31.330Z,27.97
2019-01-20T08:13:00.816Z,23.40
2019-01-20T08:15:30.284Z,26.87
2019-01-20T08:18:00.022Z,24.70
2019-01-20T08:20:29.491Z,22.73
2019-01-20T08:22:58.998Z,23.47
2019-01-20T08:25:28.421Z,24.70
2019-01-20T08:27:57.801Z,24.13
2019-01-20T08:30:28.789Z,30.13
2019-01-20T08:32:58.511Z,23.47
2019-01-20T08:35:28.231Z,24.05
2019-01-20T08:37:57.657Z,25.03
2019-01-20T08:40:29.253Z,26.35
2019-01-20T08:42:58.670Z,25.73
2019-01-20T08:45:45.002Z,25.10
2019-01-20T08:48:22.173Z,24.13
2019-01-20T08:50:51.702Z,21.53
2019-01-20T08:53:21.342Z,28.77
2019-01-20T08:55:50.706Z,22.37
2019-01-20T08:58:20.836Z,20.90
2019-01-20T09:00:58.416Z,23.53
2019-01-20T09:03:30.905Z,23.60
2019-01-20T09:06:02.450Z,20.60
2019-01-20T09:08:32.067Z,18.40
2019-01-20T09:11:01.564Z,22.43
2019-01-20T09:13:31.312Z,24.23
2019-01-20T09:16:00.752Z,17.25
2019-01-20T09:18:30.266Z,16.50
2019-01-20T09:20:59.707Z,18.43
2019-01-20T09:23:29.192Z,16.23
2019-01-20T09:25:58.558Z,15.97
2019-01-20T09:28:28.481Z,16.25
2019-01-20T09:30:58.015Z,15.90
2019-01-20T09:33:27.696Z,17.03
2019-01-20T09:35:58.187Z,12.60
2019-01-20T09:38:27.903Z,15.37
2019-01-20T09:40:57.411Z,15.30
2019-01-20T09:43:27.000Z,14.10
2019-01-20T09:45:56.708Z,17.03
2019-01-20T09:48:27.141Z,14.10
2019-01-20T09:50:56.656Z,17.07
2019-01-20T09:53:26.078Z,14.57
2019-01-20T09:55:55.577Z,15.33
2019-01-20T09:58:28.733Z,13.37
2019-01-20T10:01:02.979Z,12.87
2019-01-20T10:03:32.655Z,12.13
2019-01-20T10:06:02.231Z,14.03
2019-01-20T10:08:31.760Z,17.37
2019-01-20T10:11:01.306Z,15.95
2019-01-20T10:13:30.735Z,14.40
2019-01-20T10:16:00.151Z,12.77
2019-01-20T10:18:33.227Z,12.13
2019-01-20T10:21:02.784Z,13.80
2019-01-20T10:23:35.458Z,14.37
2019-01-20T10:26:05.460Z,13.17
2019-01-20T10:28:41.110Z,15.97
2019-01-20T10:31:10.858Z,13.78
2019-01-20T10:33:40.226Z,15.47
2019-01-20T10:36:09.930Z,13.47
2019-01-20T10:38:39.319Z,12.78
2019-01-20T10:41:08.856Z,17.93
2019-01-20T10:43:38.346Z,16.37
2019-01-20T10:46:08.127Z,17.07
2019-01-20T10:48:44.415Z,14.77
2019-01-20T10:51:14.034Z,13.43
2019-01-20T10:54:02.778Z,20.30
2019-01-20T10:56:32.396Z,15.03
2019-01-20T10:59:01.752Z,17.83
2019-01-20T11:01:31.456Z,17.07
2019-01-20T11:04:00.822Z,14.70
2019-01-20T11:12:33.024Z,16.37
2019-01-20T11:15:02.958Z,16.87
2019-01-20T11:17:32.629Z,16.97
2019-01-20T11:20:02.960Z,17.57
2019-01-20T11:22:32.542Z,16.60
2019-01-20T11:25:02.280Z,18.47
2019-01-20T11:27:32.038Z,19.00
2019-01-20T11:30:01.733Z,19.40
2019-01-20T11:32:32.921Z,16.50
2019-01-20T11:35:02.894Z,18.73
2019-01-20T11:37:32.753Z,20.03
2019-01-20T11:40:02.516Z,19.67
2019-01-20T11:42:32.188Z,16.77
2019-01-20T11:45:01.860Z,20.77
2019-01-20T11:47:41.796Z,18.45
2019-01-20T11:50:15.213Z,18.00
2019-01-20T11:52:47.800Z,19.17
2019-01-20T11:55:21.557Z,18.77
2019-01-20T11:58:02.958Z,19.93
2019-01-20T12:01:00.528Z,17.33
2019-01-20T12:03:07.905Z,17.62
2019-01-20T12:05:37.699Z,18.80
2019-01-20T12:08:07.600Z,20.17
2019-01-20T12:10:37.058Z,22.32
2019-01-20T12:13:08.103Z,20.30
2019-01-20T12:15:37.643Z,20.53
2019-01-20T12:18:07.455Z,25.20
2019-01-20T12:20:36.842Z,24.47
2019-01-20T12:23:06.353Z,19.40
2019-01-20T12:25:35.788Z,23.03
2019-01-20T12:28:05.506Z,21.63
2019-01-20T12:30:39.777Z,20.90
2019-01-20T12:33:09.350Z,25.93
2019-01-20T12:35:38.716Z,17.87
2019-01-20T12:38:08.156Z,23.60
2019-01-20T12:40:41.550Z,23.00
2019-01-20T12:43:11.377Z,22.05
2019-01-20T12:45:41.089Z,25.72
2019-01-20T12:48:12.426Z,22.13
2019-01-20T12:50:44.394Z,22.73
2019-01-20T12:53:13.647Z,22.20
2019-01-20T12:55:43.139Z,27.23
2019-01-20T12:58:15.204Z,23.67
2019-01-20T13:00:44.982Z,21.00
2019-01-20T13:03:16.964Z,20.90
2019-01-20T13:05:48.575Z,24.43
2019-01-20T13:08:18.053Z,21.27
2019-01-20T13:10:47.670Z,21.17
2019-01-20T13:13:20.411Z,23.77
2019-01-20T13:15:49.882Z,22.07
2019-01-20T13:18:19.292Z,20.77
2019-01-20T13:20:49.807Z,20.90
2019-01-20T13:23:40.630Z,21.67
2019-01-20T13:26:11.772Z,20.63
2019-01-20T13:28:44.359Z,27.63
2019-01-20T13:31:14.907Z,20.20
2019-01-20T13:33:49.006Z,21.77
2019-01-20T13:36:21.039Z,24.07
2019-01-20T13:38:50.639Z,24.83
2019-01-20T13:41:20.299Z,21.67
2019-01-20T13:43:51.281Z,21.27
2019-01-20T13:46:20.838Z,23.12
2019-01-20T13:48:53.461Z,20.23
2019-01-20T13:51:24.265Z,26.97
2019-01-20T13:53:56.366Z,22.32
2019-01-20T13:56:25.993Z,23.03
2019-01-20T13:58:55.708Z,22.83
2019-01-20T14:01:25.330Z,21.80
2019-01-20T14:03:54.872Z,25.27
2019-01-20T14:06:26.473Z,23.70
2019-01-20T14:08:56.262Z,26.63
2019-01-20T14:11:28.368Z,22.00
2019-01-20T14:13:58.000Z,22.87
2019-01-20T14:16:31.672Z,20.10
2019-01-20T14:19:01.865Z,24.73
2019-01-20T14:21:31.472Z,19.37
2019-01-20T14:24:02.679Z,20.70
2019-01-20T14:26:32.128Z,19.40
2019-01-20T14:29:01.676Z,21.55
2019-01-20T14:31:31.311Z,22.43
2019-01-20T14:34:01.143Z,19.53
2019-01-20T14:36:30.801Z,24.07
2019-01-20T14:39:01.742Z,20.17
2019-01-20T14:41:31.340Z,21.57
2019-01-20T14:44:02.169Z,19.97
2019-01-20T14:46:32.590Z,25.37
2019-01-20T14:49:01.977Z,19.77
2019-01-20T14:51:31.361Z,21.20
2019-01-20T14:54:00.993Z,16.23
2019-01-20T14:56:30.385Z,19.82
2019-01-20T14:58:59.767Z,20.53
2019-01-20T15:01:29.147Z,21.93
2019-01-20T15:03:58.703Z,19.83
2019-01-20T15:06:32.960Z,21.77
2019-01-20T15:09:02.539Z,20.07
2019-01-20T15:11:31.984Z,18.90
2019-01-20T15:14:01.651Z,18.30
2019-01-20T15:16:31.373Z,23.18
2019-01-20T15:19:00.756Z,21.07
2019-01-20T15:21:31.536Z,19.03
2019-01-20T15:24:01.776Z,21.13
2019-01-20T15:27:05.072Z,18.57
2019-01-20T15:29:18.181Z,18.80
2019-01-20T15:31:54.082Z,18.90
2019-01-20T15:34:26.354Z,21.77
2019-01-20T15:37:00.444Z,23.20
2019-01-20T15:39:32.319Z,20.92
2019-01-20T15:42:05.696Z,19.00
2019-01-20T15:44:36.835Z,20.77
2019-01-20T15:47:11.549Z,22.20
2019-01-20T15:49:43.589Z,23.97
2019-01-20T15:52:15.417Z,21.03
2019-01-20T15:54:48.580Z,22.17
2019-01-20T15:57:24.483Z,19.63
2019-01-20T15:59:59.767Z,25.13
2019-01-20T16:02:30.038Z,23.03
2019-01-20T16:04:59.897Z,21.00
2019-01-20T16:07:35.357Z,22.40
2019-01-20T16:11:17.393Z,25.45
2019-01-20T16:12:48.510Z,23.77
2019-01-20T16:15:25.528Z,23.83
2019-01-20T16:18:00.983Z,22.05
2019-01-20T16:20:34.483Z,23.43
2019-01-20T16:23:08.940Z,24.60
2019-01-20T16:25:40.908Z,22.02
2019-01-20T16:28:21.161Z,22.13
2019-01-20T16:30:50.937Z,20.53
2019-01-20T16:33:24.880Z,26.10
2019-01-20T16:36:00.137Z,25.23
2019-01-20T16:39:17.789Z,23.70
2019-01-20T16:41:32.637Z,22.57
2019-01-20T16:44:12.033Z,21.60
2019-01-20T16:46:46.212Z,23.83
2019-01-20T16:49:31.902Z,24.67
2019-01-20T16:52:06.586Z,20.88
2019-01-20T16:54:44.552Z,21.93
2019-01-20T16:57:25.062Z,24.65
2019-01-20T17:00:12.781Z,28.67
2019-01-20T17:02:51.978Z,26.57
2019-01-20T17:05:26.881Z,25.17
2019-01-20T17:08:11.007Z,20.20
2019-01-20T17:10:44.847Z,19.33
2019-01-20T17:13:16.174Z,20.55
2019-01-20T17:16:00.696Z,25.67
2019-01-20T17:18:33.488Z,21.60
2019-01-20T17:21:03.480Z,22.90
2019-01-20T17:23:39.948Z,23.37
2019-01-20T17:28:40.715Z,27.33
2019-01-20T17:31:10.353Z,24.10
2019-01-20T17:33:39.920Z,25.33
2019-01-20T17:36:11.165Z,24.87
2019-01-20T17:38:40.676Z,25.77
2019-01-20T17:41:10.489Z,30.53
2019-01-20T17:43:39.962Z,24.57
2019-01-20T17:46:09.564Z,23.93
2019-01-20T17:48:39.043Z,27.90
2019-01-20T17:51:08.465Z,32.53
2019-01-20T17:53:38.069Z,26.95
2019-01-20T17:56:07.588Z,26.45
2019-01-20T17:58:37.056Z,27.07
2019-01-20T18:01:26.452Z,30.68
2019-01-20T18:03:56.009Z,25.35
2019-01-20T18:06:25.556Z,25.15
2019-01-20T18:08:55.059Z,25.17
2019-01-20T18:11:24.513Z,32.87
2019-01-20T18:13:55.873Z,27.67
2019-01-20T18:16:25.631Z,61.33
2019-01-20T18:18:55.559Z,57.53
2019-01-20T18:21:25.136Z,35.67
2019-01-20T18:23:54.665Z,40.80
2019-01-20T18:26:24.679Z,81.57
2019-01-20T18:28:54.263Z,63.93
2019-01-20T18:31:24.760Z,42.43
2019-01-20T18:33:54.718Z,44.50
2019-01-20T18:36:24.714Z,44.50
2019-01-20T18:39:06.028Z,43.40
2019-01-20T18:41:42.225Z,31.73
2019-01-20T18:44:16.483Z,33.90
2019-01-20T18:46:46.098Z,37.50
2019-01-20T18:49:19.271Z,34.57
2019-01-20T18:51:49.377Z,31.05
2019-01-20T18:54:24.737Z,33.83
2019-01-20T18:56:54.251Z,33.80
2019-01-20T18:59:23.748Z,32.58
2019-01-20T19:01:53.254Z,36.00
2019-01-20T19:04:23.027Z,33.07
2019-01-20T19:06:52.556Z,37.63
2019-01-20T19:09:26.299Z,34.07
2019-01-20T19:11:56.072Z,37.33
2019-01-20T19:14:27.947Z,35.60
2019-01-20T19:16:59.967Z,41.10
2019-01-20T19:19:36.811Z,44.73
2019-01-20T19:22:06.785Z,39.20
2019-01-20T19:24:41.057Z,42.80
2019-01-20T19:27:11.379Z,40.13
2019-01-20T19:29:41.294Z,38.33
2019-01-20T19:32:11.272Z,38.60
2019-01-20T19:34:40.890Z,35.47
2019-01-20T19:37:12.079Z,44.83
2019-01-20T19:39:42.745Z,41.07
2019-01-20T19:42:14.652Z,41.70
2019-01-20T19:44:44.706Z,36.03
2019-01-20T19:47:16.939Z,42.30
2019-01-20T19:49:46.393Z,36.20
2019-01-20T19:52:15.967Z,35.80
2019-01-20T19:54:45.498Z,29.65
2019-01-20T19:57:15.730Z,39.57
2019-01-20T19:59:45.376Z,34.23
2019-01-20T20:02:14.926Z,34.20
2019-01-20T20:04:46.321Z,32.27
2019-01-20T20:07:16.048Z,36.10
2019-01-20T20:09:46.168Z,34.57
2019-01-20T20:12:15.989Z,41.70
2019-01-20T20:14:45.585Z,40.67
2019-01-20T20:17:15.335Z,38.67
2019-01-20T20:19:45.108Z,36.80
2019-01-20T20:22:14.559Z,37.90
2019-01-20T20:24:44.068Z,37.00
2019-01-20T20:27:13.591Z,39.80
2019-01-20T20:29:44.980Z,34.90
2019-01-20T20:32:14.698Z,36.23
2019-01-20T20:34:44.548Z,35.15
2019-01-20T20:37:13.995Z,42.85
2019-01-20T20:39:43.460Z,65.73
2019-01-20T20:42:12.971Z,44.80
2019-01-20T20:44:42.728Z,36.27
2019-01-20T20:47:12.464Z,35.03
2019-01-20T20:49:42.570Z,37.47
2019-01-20T20:52:11.954Z,33.30
2019-01-20T20:54:41.355Z,33.37
2019-01-20T20:57:10.887Z,39.37
2019-01-20T20:59:40.290Z,37.43
2019-01-20T21:02:09.668Z,37.13
2019-01-20T21:04:39.334Z,38.23
2019-01-20T21:07:08.759Z,33.57
2019-01-20T21:09:38.273Z,32.73
2019-01-20T21:12:07.738Z,33.67
2019-01-20T21:14:37.144Z,33.73
2019-01-20T21:17:06.639Z,30.53
2019-01-20T21:19:36.050Z,30.33
2019-01-20T21:22:05.765Z,34.93
2019-01-20T21:24:35.242Z,34.13
2019-01-20T21:27:04.677Z,32.63
2019-01-20T21:29:34.147Z,31.73
2019-01-20T21:32:04.088Z,39.07
2019-01-20T21:34:33.519Z,34.45
2019-01-20T21:37:22.812Z,37.42
2019-01-20T21:39:52.480Z,37.83
2019-01-20T21:42:21.846Z,34.57
2019-01-20T21:44:51.220Z,31.62
2019-01-20T21:47:20.597Z,36.95
2019-01-20T21:49:49.973Z,34.18
2019-01-20T21:52:19.619Z,37.67
2019-01-20T21:54:48.987Z,34.73
2019-01-20T21:57:18.373Z,36.90
2019-01-20T21:59:47.735Z,35.15
2019-01-20T22:02:17.144Z,35.93
2019-01-20T22:04:46.863Z,36.27
2019-01-20T22:07:16.305Z,34.20
2019-01-20T22:09:46.058Z,33.67
2019-01-20T22:12:15.732Z,32.10
2019-01-20T22:14:45.099Z,38.70
2019-01-20T22:17:14.480Z,35.00
2019-01-20T22:19:43.870Z,40.57
2019-01-20T22:22:13.270Z,43.17
2019-01-20T22:24:42.645Z,41.23
2019-01-20T22:27:12.020Z,36.10
2019-01-20T22:29:41.627Z,38.30
2019-01-20T22:32:11.260Z,36.90
2019-01-20T22:34:40.635Z,37.10
2019-01-20T22:37:10.008Z,40.47
2019-01-20T22:39:39.380Z,77.90
2019-01-20T22:42:08.773Z,67.15
2019-01-20T22:44:38.392Z,70.03
2019-01-20T22:47:07.772Z,52.73
2019-01-20T22:49:37.192Z,51.63
2019-01-20T22:52:06.880Z,43.27
2019-01-20T22:54:36.256Z,42.80
2019-01-20T22:57:05.875Z,42.47
2019-01-20T22:59:35.497Z,36.73
2019-01-20T23:02:05.513Z,39.03
2019-01-20T23:04:35.219Z,39.48
2019-01-20T23:07:05.578Z,41.40
2019-01-20T23:09:35.626Z,40.95
2019-01-20T23:12:06.092Z,37.15
2019-01-20T23:14:35.810Z,39.88
2019-01-20T23:17:07.986Z,40.50
2019-01-20T23:19:37.230Z,32.90
2019-01-20T23:22:06.868Z,39.93
2019-01-20T23:24:36.244Z,41.47
2019-01-20T23:27:06.535Z,36.85
2019-01-20T23:29:36.253Z,34.25
2019-01-20T23:32:06.250Z,33.63
2019-01-20T23:34:36.338Z,32.10
2019-01-20T23:37:06.816Z,33.98
2019-01-20T23:39:36.426Z,43.58
2019-01-20T23:42:06.474Z,34.03
2019-01-20T23:44:36.400Z,36.97
2019-01-20T23:47:06.453Z,40.58
2019-01-20T23:49:36.485Z,39.50
2019-01-20T23:52:06.496Z,39.23
2019-01-20T23:54:36.582Z,38.20
2019-01-20T23:57:06.671Z,35.28
2019-01-20T23:59:36.638Z,41.75
